Nobleford, Canada
Current Conditions -  °F | °C
As of 9:00 PM on Monday 22 Dec 2014 (Local Time) from CYQL Reporting Station
Overcast Overcast  
Wind Chill: 25°   Ceiling: 7000
Heat Index: 32°   Visibility: 15mi
Dew Point: 28°   Wind: 8mph
Humidity: 87%   Direction: 150°SSE
Pressure: 30.1"   Gusts: NA
Location:  49.88°N, 113.05°W
Report Text: CYQL 230400Z 15007KT 15SM FEW040 BKN070 OVC110 00/M02 A3010 RMK SC2AC3AC3 SLP230
Loading
Personal Weather Stations






























Interactive Weather Map New forecast layout! Learn more

10-Day Weather Forecast

Advertisements
Track Severe Weather on mobile